createdAt,value
2018-08-11T00:00:35.794Z,12.77
2018-08-11T00:01:35.722Z,12.64
2018-08-11T00:02:35.777Z,12.73
2018-08-11T00:03:35.825Z,12.65
2018-08-11T00:04:35.812Z,12.49
2018-08-11T00:05:35.772Z,12.72
2018-08-11T00:06:35.744Z,12.49
2018-08-11T00:07:35.983Z,12.56
2018-08-11T00:08:35.892Z,12.53
2018-08-11T00:09:35.913Z,12.46
2018-08-11T00:10:35.718Z,12.46
2018-08-11T00:11:35.735Z,12.49
2018-08-11T00:12:35.853Z,12.46
2018-08-11T00:13:35.921Z,12.41
2018-08-11T00:14:35.725Z,12.43
2018-08-11T00:15:35.755Z,12.42
2018-08-11T00:16:35.747Z,12.56
2018-08-11T00:17:35.743Z,12.61
2018-08-11T00:18:35.750Z,12.47
2018-08-11T00:19:35.880Z,12.58
2018-08-11T00:20:36.076Z,12.48
2018-08-11T00:21:35.772Z,12.55
2018-08-11T00:22:35.801Z,12.59
2018-08-11T00:23:35.766Z,12.46
2018-08-11T00:24:35.762Z,12.64
2018-08-11T00:25:35.774Z,12.63
2018-08-11T00:26:35.728Z,12.57
2018-08-11T00:27:35.753Z,12.51
2018-08-11T00:28:35.825Z,12.4
2018-08-11T00:29:35.830Z,12.49
2018-08-11T00:30:35.811Z,12.41
2018-08-11T00:31:35.723Z,12.37
2018-08-11T00:32:35.691Z,12.65
2018-08-11T00:33:35.763Z,12.53
2018-08-11T00:34:35.752Z,12.56
2018-08-11T00:35:35.739Z,12.57
2018-08-11T00:36:36.196Z,12.52
2018-08-11T00:37:35.750Z,12.56
2018-08-11T00:38:35.812Z,12.45
2018-08-11T00:39:35.728Z,12.45
2018-08-11T00:40:35.803Z,12.4
2018-08-11T00:41:35.885Z,12.4
2018-08-11T00:42:35.737Z,12.33
2018-08-11T00:43:35.933Z,12.3
2018-08-11T00:44:35.767Z,12.48
2018-08-11T00:45:35.690Z,12.43
2018-08-11T00:46:35.836Z,12.36
2018-08-11T00:47:35.739Z,12.36
2018-08-11T00:48:35.693Z,12.49
2018-08-11T00:49:36.415Z,12.45
2018-08-11T00:50:35.704Z,12.36
2018-08-11T00:51:35.758Z,12.39
2018-08-11T00:52:35.739Z,12.4
2018-08-11T00:53:35.740Z,12.38
2018-08-11T00:54:35.704Z,12.36
2018-08-11T00:55:35.751Z,12.36
2018-08-11T00:56:35.738Z,12.27
2018-08-11T00:57:35.737Z,12.3
2018-08-11T00:58:35.704Z,12.28
2018-08-11T00:59:35.692Z,12.39
2018-08-11T01:00:35.717Z,12.28
2018-08-11T01:01:35.737Z,12.25
2018-08-11T01:02:35.734Z,12.16
2018-08-11T01:03:35.739Z,12.3
2018-08-11T01:04:35.705Z,12.23
2018-08-11T01:05:35.704Z,12.44
2018-08-11T01:06:35.697Z,12.3
2018-08-11T01:07:35.738Z,12.27
2018-08-11T01:08:35.728Z,12.11
2018-08-11T01:09:35.714Z,12.34
2018-08-11T01:10:35.726Z,12.46
2018-08-11T01:11:35.837Z,12.32
2018-08-11T01:12:35.705Z,12.23
2018-08-11T01:13:35.752Z,12.11
2018-08-11T01:14:35.814Z,12.27
2018-08-11T01:15:36.053Z,12.32
2018-08-11T01:16:35.758Z,12.18
2018-08-11T01:17:35.874Z,12.09
2018-08-11T01:18:35.918Z,12.04
2018-08-11T01:19:35.819Z,12.2
2018-08-11T01:20:35.800Z,12.21
2018-08-11T01:21:35.735Z,12.07
2018-08-11T01:22:35.859Z,12.23
2018-08-11T01:23:35.830Z,12.31
2018-08-11T01:24:35.840Z,12.26
2018-08-11T01:25:35.747Z,12.2
2018-08-11T01:26:35.730Z,12.18
2018-08-11T01:27:35.873Z,12.13
2018-08-11T01:28:35.704Z,12.06
2018-08-11T01:29:35.784Z,12.04
2018-08-11T01:30:35.871Z,11.98
2018-08-11T01:31:35.804Z,12.06
2018-08-11T01:32:36.133Z,12.04
2018-08-11T01:33:35.746Z,12.02
2018-08-11T01:34:35.886Z,12.07
2018-08-11T01:35:35.914Z,12.08
2018-08-11T01:36:35.794Z,12.02
2018-08-11T01:37:35.733Z,12.11
2018-08-11T01:38:36.145Z,11.88
2018-08-11T01:39:35.698Z,11.99
2018-08-11T01:40:35.722Z,11.99
2018-08-11T01:41:35.732Z,11.97
2018-08-11T01:42:35.752Z,11.97
2018-08-11T01:43:35.768Z,12
2018-08-11T01:44:35.729Z,12.09
2018-08-11T01:45:35.756Z,11.94
2018-08-11T01:46:35.757Z,11.87
2018-08-11T01:47:35.774Z,11.94
2018-08-11T01:48:35.755Z,11.96
2018-08-11T01:49:35.709Z,11.93
2018-08-11T01:50:36.045Z,11.86
2018-08-11T01:51:35.735Z,11.87
2018-08-11T01:52:35.734Z,11.83
2018-08-11T01:53:35.784Z,11.91
2018-08-11T01:54:35.881Z,11.8
2018-08-11T01:55:35.736Z,11.87
2018-08-11T01:56:35.840Z,11.73
2018-08-11T01:57:35.722Z,11.79
2018-08-11T01:58:36.028Z,11.77
2018-08-11T01:59:35.687Z,11.9
2018-08-11T02:00:35.850Z,11.74
2018-08-11T02:01:35.729Z,11.66
2018-08-11T02:02:35.721Z,11.67
2018-08-11T02:03:35.787Z,11.62
2018-08-11T02:04:36.185Z,11.63
2018-08-11T02:05:35.758Z,11.61
2018-08-11T02:06:35.754Z,11.68
2018-08-11T02:07:35.771Z,11.66
2018-08-11T02:08:35.688Z,11.55
2018-08-11T02:09:35.723Z,11.58
2018-08-11T02:10:35.765Z,11.55
2018-08-11T02:11:35.731Z,11.55
2018-08-11T02:12:35.701Z,11.57
2018-08-11T02:13:35.775Z,11.55
2018-08-11T02:14:35.724Z,11.53
2018-08-11T02:15:35.730Z,11.55
2018-08-11T02:16:35.712Z,11.49
2018-08-11T02:17:36.018Z,11.49
2018-08-11T02:18:35.806Z,11.47
2018-08-11T02:19:35.709Z,11.48
2018-08-11T02:20:35.731Z,11.45
2018-08-11T02:21:35.736Z,11.49
2018-08-11T02:22:35.780Z,11.53
2018-08-11T02:23:35.825Z,11.42
2018-08-11T02:24:35.931Z,11.49
2018-08-11T02:25:35.739Z,11.35
2018-08-11T02:26:35.845Z,11.35
2018-08-11T02:27:35.693Z,11.42
2018-08-11T02:28:35.757Z,11.35
2018-08-11T02:29:35.836Z,11.31
2018-08-11T02:30:35.725Z,11.41
2018-08-11T02:31:35.741Z,11.32
2018-08-11T02:32:35.749Z,11.29
2018-08-11T02:33:35.855Z,11.25
2018-08-11T02:34:35.867Z,11.27
2018-08-11T02:35:35.929Z,11.21
2018-08-11T02:36:35.755Z,11.31
2018-08-11T02:37:35.737Z,11.39
2018-08-11T02:38:35.778Z,11.28
2018-08-11T02:39:35.930Z,11.35
2018-08-11T02:40:35.693Z,11.33
2018-08-11T02:41:35.813Z,11.37
2018-08-11T02:42:35.860Z,11.29
2018-08-11T02:43:35.980Z,11.38
2018-08-11T02:44:35.848Z,11.23
2018-08-11T02:45:35.857Z,11.38
2018-08-11T02:46:35.832Z,11.27
2018-08-11T02:47:35.812Z,11.4
2018-08-11T02:48:35.825Z,11.28
2018-08-11T02:49:35.909Z,11.48
2018-08-11T02:50:35.933Z,11.4
2018-08-11T02:51:35.731Z,11.58
2018-08-11T02:52:35.781Z,11.49
2018-08-11T02:53:35.976Z,11.39
2018-08-11T02:54:35.765Z,11.33
2018-08-11T02:55:35.881Z,11.36
2018-08-11T02:56:35.780Z,11.48
2018-08-11T02:57:35.852Z,11.4
2018-08-11T02:58:35.958Z,11.49
2018-08-11T02:59:35.844Z,11.45
2018-08-11T03:00:35.758Z,11.47
2018-08-11T03:01:35.741Z,11.57
2018-08-11T03:02:36.873Z,11.64
2018-08-11T03:03:35.851Z,11.5
2018-08-11T03:04:35.739Z,11.41
2018-08-11T03:05:35.708Z,11.45
2018-08-11T03:06:35.878Z,11.49
2018-08-11T03:07:35.797Z,11.72
2018-08-11T03:08:35.895Z,11.59
2018-08-11T03:09:35.730Z,11.58
2018-08-11T03:10:35.873Z,11.64
2018-08-11T03:11:35.735Z,11.65
2018-08-11T03:12:35.718Z,11.61
2018-08-11T03:13:35.831Z,11.65
2018-08-11T03:14:35.737Z,11.54
2018-08-11T03:15:35.795Z,11.45
2018-08-11T03:16:35.851Z,11.49
2018-08-11T03:17:35.749Z,11.58
2018-08-11T03:18:35.760Z,11.61
2018-08-11T03:19:35.764Z,11.59
2018-08-11T03:20:35.726Z,11.52
2018-08-11T03:21:35.795Z,11.36
2018-08-11T03:22:35.838Z,11.51
2018-08-11T03:23:35.720Z,11.42
2018-08-11T03:24:35.732Z,11.49
2018-08-11T03:25:35.677Z,11.49
2018-08-11T03:26:35.735Z,11.53
2018-08-11T03:27:35.723Z,11.48
2018-08-11T03:28:35.676Z,11.42
2018-08-11T03:29:35.798Z,11.39
2018-08-11T03:30:35.747Z,11.36
2018-08-11T03:31:35.747Z,11.49
2018-08-11T03:32:35.762Z,11.33
2018-08-11T03:33:35.730Z,11.32
2018-08-11T03:34:35.722Z,11.27
2018-08-11T03:35:35.697Z,11.26
2018-08-11T03:36:35.728Z,11.27
2018-08-11T03:37:35.711Z,11.25
2018-08-11T03:38:35.719Z,11.29
2018-08-11T03:39:35.676Z,11.2
2018-08-11T03:40:35.938Z,11.23
2018-08-11T03:41:35.713Z,11.33
2018-08-11T03:42:35.708Z,11.25
2018-08-11T03:43:35.759Z,11.2
2018-08-11T03:44:35.738Z,11.17
2018-08-11T03:45:35.838Z,11.13
2018-08-11T03:46:35.836Z,11.14
2018-08-11T03:47:35.734Z,11.11
2018-08-11T03:48:35.704Z,11.11
2018-08-11T03:49:35.732Z,11.12
2018-08-11T03:50:35.884Z,11.03
2018-08-11T03:51:35.675Z,10.97
2018-08-11T03:52:36.422Z,11.04
2018-08-11T03:53:35.756Z,10.97
2018-08-11T03:54:35.799Z,10.98
2018-08-11T03:55:35.757Z,10.92
2018-08-11T03:56:35.717Z,10.92
2018-08-11T03:57:35.768Z,10.84
2018-08-11T03:58:35.928Z,10.94
2018-08-11T03:59:35.733Z,10.86
2018-08-11T04:00:35.772Z,10.83
2018-08-11T04:01:35.894Z,10.81
2018-08-11T04:02:35.789Z,10.79
2018-08-11T04:03:35.763Z,10.74
2018-08-11T04:04:35.738Z,10.76
2018-08-11T04:05:35.729Z,10.86
2018-08-11T04:06:36.190Z,10.79
2018-08-11T04:07:35.733Z,10.72
2018-08-11T04:08:35.734Z,10.83
2018-08-11T04:09:35.851Z,10.8
2018-08-11T04:10:35.721Z,10.76
2018-08-11T04:11:35.727Z,10.69
2018-08-11T04:12:35.809Z,10.72
2018-08-11T04:13:35.717Z,10.63
2018-08-11T04:14:35.708Z,10.61
2018-08-11T04:15:35.866Z,10.69
2018-08-11T04:16:35.712Z,10.7
2018-08-11T04:17:35.721Z,10.71
2018-08-11T04:18:35.924Z,10.73
2018-08-11T04:19:35.729Z,10.74
2018-08-11T04:20:35.762Z,10.66
2018-08-11T04:21:35.832Z,10.66
2018-08-11T04:22:35.691Z,10.72
2018-08-11T04:23:35.722Z,10.78
2018-08-11T04:24:35.732Z,10.7
2018-08-11T04:25:35.842Z,10.68
2018-08-11T04:26:35.773Z,10.65
2018-08-11T04:27:35.721Z,10.74
2018-08-11T04:28:35.715Z,10.66
2018-08-11T04:29:35.763Z,10.69
2018-08-11T04:30:35.715Z,10.67
2018-08-11T04:31:35.708Z,10.71
2018-08-11T04:32:35.789Z,10.78
2018-08-11T04:33:35.791Z,10.76
2018-08-11T04:34:35.732Z,10.73
2018-08-11T04:35:35.828Z,10.7
2018-08-11T04:36:35.729Z,10.75
2018-08-11T04:37:35.693Z,10.72
2018-08-11T04:38:35.744Z,10.76
2018-08-11T04:39:35.736Z,10.76
2018-08-11T04:40:35.697Z,10.69
2018-08-11T04:41:35.692Z,10.7
2018-08-11T04:42:35.799Z,10.67
2018-08-11T04:43:35.722Z,10.59
2018-08-11T04:44:35.705Z,10.78
2018-08-11T04:45:35.702Z,10.74
2018-08-11T04:46:35.707Z,10.7
2018-08-11T04:47:35.720Z,10.73
2018-08-11T04:48:35.711Z,10.69
2018-08-11T04:49:35.736Z,10.71
2018-08-11T04:50:35.710Z,10.71
2018-08-11T04:51:35.697Z,10.71
2018-08-11T04:52:35.723Z,10.65
2018-08-11T04:53:35.757Z,10.71
2018-08-11T04:54:35.905Z,10.71
2018-08-11T04:55:35.710Z,10.71
2018-08-11T04:56:36.378Z,10.69
2018-08-11T04:57:35.698Z,10.69
2018-08-11T04:58:35.710Z,10.74
2018-08-11T04:59:35.906Z,10.73
2018-08-11T05:00:35.700Z,10.79
2018-08-11T05:01:35.705Z,10.72
2018-08-11T05:02:35.719Z,10.87
2018-08-11T05:03:35.883Z,10.7
2018-08-11T05:04:35.862Z,10.84
2018-08-11T05:05:36.545Z,10.79
2018-08-11T05:06:35.730Z,10.77
2018-08-11T05:07:35.722Z,10.8
2018-08-11T05:08:35.745Z,10.72
2018-08-11T05:09:35.818Z,10.72
2018-08-11T05:10:35.866Z,10.66
2018-08-11T05:11:35.751Z,10.59
2018-08-11T05:12:35.682Z,10.52
2018-08-11T05:13:35.791Z,10.56
2018-08-11T05:14:35.726Z,10.51
2018-08-11T05:15:36.163Z,10.58
2018-08-11T05:16:35.720Z,10.52
2018-08-11T05:17:35.765Z,10.58
2018-08-11T05:18:36.091Z,10.6
2018-08-11T05:19:35.734Z,10.55
2018-08-11T05:20:35.712Z,10.53
2018-08-11T05:21:35.958Z,10.56
2018-08-11T05:22:35.694Z,10.42
2018-08-11T05:23:36.043Z,10.51
2018-08-11T05:24:35.709Z,10.58
2018-08-11T05:25:35.767Z,10.62
2018-08-11T05:26:35.858Z,10.62
2018-08-11T05:27:35.749Z,10.6
2018-08-11T05:28:35.889Z,10.48
2018-08-11T05:29:35.766Z,10.47
2018-08-11T05:30:35.749Z,10.58
2018-08-11T05:31:35.757Z,10.6
2018-08-11T05:32:35.726Z,10.56
2018-08-11T05:33:35.826Z,10.67
2018-08-11T05:34:35.744Z,10.79
2018-08-11T05:35:35.767Z,10.68
2018-08-11T05:36:35.816Z,10.74
2018-08-11T05:37:35.704Z,10.74
2018-08-11T05:38:35.735Z,10.67
2018-08-11T05:39:35.737Z,10.81
2018-08-11T05:40:35.705Z,10.76
2018-08-11T05:41:36.050Z,10.75
2018-08-11T05:42:35.723Z,10.78
2018-08-11T05:43:35.972Z,10.81
2018-08-11T05:44:35.890Z,10.85
2018-08-11T05:45:35.770Z,10.79
2018-08-11T05:46:35.749Z,10.81
2018-08-11T05:47:35.732Z,10.71
2018-08-11T05:48:35.744Z,10.69
2018-08-11T05:49:35.866Z,10.83
2018-08-11T05:50:35.778Z,10.72
2018-08-11T05:51:35.818Z,10.77
2018-08-11T05:52:35.834Z,10.88
2018-08-11T05:53:35.788Z,10.84
2018-08-11T05:54:35.937Z,10.52
2018-08-11T05:55:35.719Z,10.46
2018-08-11T05:56:35.705Z,10.37
2018-08-11T05:57:35.818Z,10.5
2018-08-11T05:58:35.695Z,10.43
2018-08-11T05:59:35.697Z,10.23
2018-08-11T06:00:35.798Z,10.24
2018-08-11T06:01:35.799Z,10.14
2018-08-11T06:02:35.684Z,10.21
2018-08-11T06:03:35.697Z,9.97
2018-08-11T06:04:35.711Z,10.03
2018-08-11T06:05:35.677Z,10.04
2018-08-11T06:06:35.708Z,10
2018-08-11T06:07:35.686Z,9.97
2018-08-11T06:08:35.705Z,9.83
2018-08-11T06:09:35.725Z,9.83
2018-08-11T06:10:36.208Z,9.86
2018-08-11T06:11:35.708Z,9.94
2018-08-11T06:12:35.701Z,9.91
2018-08-11T06:13:35.697Z,9.86
2018-08-11T06:14:35.718Z,9.8
2018-08-11T06:15:35.672Z,9.91
2018-08-11T06:16:35.709Z,9.87
2018-08-11T06:17:35.699Z,9.95
2018-08-11T06:18:35.908Z,9.89
2018-08-11T06:19:35.741Z,9.87
2018-08-11T06:20:35.682Z,9.87
2018-08-11T06:21:35.748Z,9.71
2018-08-11T06:22:35.730Z,9.75
2018-08-11T06:23:35.703Z,9.76
2018-08-11T06:24:35.921Z,9.87
2018-08-11T06:25:35.705Z,9.8
2018-08-11T06:26:35.709Z,9.84
2018-08-11T06:27:35.726Z,9.93
2018-08-11T06:28:35.704Z,9.8
2018-08-11T06:29:35.905Z,9.85
2018-08-11T06:30:35.746Z,9.93
2018-08-11T06:31:37.045Z,9.86
2018-08-11T06:32:35.716Z,9.8
2018-08-11T06:33:35.789Z,9.85
2018-08-11T06:34:35.796Z,9.93
2018-08-11T06:35:35.873Z,9.76
2018-08-11T06:36:35.739Z,9.83
2018-08-11T06:37:35.845Z,9.87
2018-08-11T06:38:35.806Z,9.84
2018-08-11T06:39:35.731Z,9.78
2018-08-11T06:40:36.142Z,9.86
2018-08-11T06:41:35.977Z,9.89
2018-08-11T06:42:35.794Z,9.97
2018-08-11T06:43:35.761Z,9.92
2018-08-11T06:44:35.728Z,9.95
2018-08-11T06:45:35.808Z,9.99
2018-08-11T06:46:35.900Z,9.96
2018-08-11T06:47:35.764Z,9.93
2018-08-11T06:48:35.697Z,9.9
2018-08-11T06:49:35.767Z,9.88
2018-08-11T06:50:35.712Z,9.94
2018-08-11T06:51:35.713Z,9.87
2018-08-11T06:52:35.970Z,9.82
2018-08-11T06:53:35.764Z,9.83
2018-08-11T06:54:35.770Z,9.86
2018-08-11T06:55:36.522Z,10.03
2018-08-11T06:56:35.712Z,9.85
2018-08-11T06:57:35.751Z,9.88
2018-08-11T06:58:35.816Z,9.79
2018-08-11T06:59:35.733Z,9.87
2018-08-11T07:00:35.729Z,9.89
2018-08-11T07:01:35.835Z,9.94
2018-08-11T07:02:35.705Z,10.01
2018-08-11T07:03:35.992Z,9.99
2018-08-11T07:04:35.714Z,9.81
2018-08-11T07:05:35.748Z,9.81
2018-08-11T07:06:36.252Z,9.88
2018-08-11T07:07:35.750Z,9.84
2018-08-11T07:08:35.710Z,9.79
2018-08-11T07:09:35.708Z,9.74
2018-08-11T07:10:35.887Z,9.73
2018-08-11T07:11:35.935Z,9.74
2018-08-11T07:12:35.704Z,9.77
2018-08-11T07:13:36.064Z,9.79
2018-08-11T07:14:35.709Z,9.93
2018-08-11T07:15:35.699Z,10.03
2018-08-11T07:16:35.731Z,9.91
2018-08-11T07:17:35.693Z,9.92
2018-08-11T07:18:35.722Z,9.93
2018-08-11T07:19:35.712Z,9.77
2018-08-11T07:20:35.703Z,9.51
2018-08-11T07:21:36.131Z,9.55
2018-08-11T07:22:35.693Z,9.64
2018-08-11T07:23:35.721Z,9.68
2018-08-11T07:24:35.749Z,9.43
2018-08-11T07:25:35.826Z,9.45
2018-08-11T07:26:36.409Z,9.67
2018-08-11T07:27:35.746Z,9.66
2018-08-11T07:28:35.690Z,9.5
2018-08-11T07:29:35.890Z,9.53
2018-08-11T07:30:35.718Z,9.49
2018-08-11T07:31:35.687Z,9.56
2018-08-11T07:32:35.757Z,9.39
2018-08-11T07:33:35.699Z,9.63
2018-08-11T07:34:35.740Z,9.66
2018-08-11T07:35:35.859Z,9.7
2018-08-11T07:36:36.156Z,9.59
2018-08-11T07:37:36.796Z,9.56
2018-08-11T07:38:36.026Z,9.64
2018-08-11T07:39:36.091Z,9.74
2018-08-11T07:40:36.731Z,9.64
2018-08-11T07:41:35.757Z,9.75
2018-08-11T07:42:35.731Z,9.74
2018-08-11T07:43:35.849Z,9.75
2018-08-11T07:44:35.680Z,9.71
2018-08-11T07:45:35.709Z,9.79
2018-08-11T07:46:35.698Z,9.91
2018-08-11T07:47:36.162Z,9.91
2018-08-11T07:48:36.431Z,10
2018-08-11T07:49:36.297Z,9.8
2018-08-11T07:50:35.892Z,9.76
2018-08-11T07:51:35.776Z,9.8
2018-08-11T07:52:35.728Z,9.86
2018-08-11T07:53:35.732Z,9.93
2018-08-11T07:54:35.823Z,10.14
2018-08-11T07:55:35.720Z,10.09
2018-08-11T07:56:35.743Z,10.03
2018-08-11T07:57:35.693Z,10.12
2018-08-11T07:58:35.784Z,10.12
2018-08-11T07:59:35.725Z,10.12
2018-08-11T08:00:35.838Z,10.04
2018-08-11T08:01:35.689Z,10.08
2018-08-11T08:02:35.786Z,10.12
2018-08-11T08:03:35.742Z,10.27
2018-08-11T08:04:35.831Z,10.32
2018-08-11T08:05:35.722Z,10.23
2018-08-11T08:06:35.814Z,10.37
2018-08-11T08:07:35.801Z,10.15
2018-08-11T08:08:35.705Z,10.28
2018-08-11T08:09:35.735Z,10.27
2018-08-11T08:10:35.710Z,10.21
2018-08-11T08:11:35.757Z,10.45
2018-08-11T08:12:35.891Z,10.33
2018-08-11T08:13:35.809Z,10.33
2018-08-11T08:14:35.858Z,10.64
2018-08-11T08:15:35.703Z,10.45
2018-08-11T08:16:35.717Z,10.42
2018-08-11T08:17:35.702Z,10.54
2018-08-11T08:18:35.717Z,10.42
2018-08-11T08:19:35.707Z,10.51
2018-08-11T08:20:35.764Z,10.35
2018-08-11T08:21:35.657Z,10.56
2018-08-11T08:22:36.011Z,10.51
2018-08-11T08:23:36.108Z,10.61
2018-08-11T08:24:35.848Z,10.44
2018-08-11T08:25:35.876Z,10.7
2018-08-11T08:26:36.646Z,10.64
2018-08-11T08:27:35.722Z,10.76
2018-08-11T08:28:35.676Z,10.83
2018-08-11T08:29:35.715Z,10.41
2018-08-11T08:30:35.721Z,10.7
2018-08-11T08:31:35.762Z,10.7
2018-08-11T08:32:35.699Z,10.51
2018-08-11T08:33:35.722Z,10.64
2018-08-11T08:34:35.668Z,10.67
2018-08-11T08:35:35.706Z,10.72
2018-08-11T08:36:36.103Z,10.61
2018-08-11T08:37:35.718Z,10.4
2018-08-11T08:38:35.721Z,10.46
2018-08-11T08:39:35.702Z,10.42
2018-08-11T08:40:35.675Z,10.51
2018-08-11T08:41:35.687Z,10.56
2018-08-11T08:42:35.724Z,10.56
2018-08-11T08:43:35.679Z,10.59
2018-08-11T08:44:35.671Z,10.76
2018-08-11T08:45:35.694Z,10.78
2018-08-11T08:46:35.689Z,10.82
2018-08-11T08:47:36.246Z,10.78
2018-08-11T08:48:35.696Z,10.64
2018-08-11T08:49:35.669Z,10.76
2018-08-11T08:50:35.906Z,10.8
2018-08-11T08:51:35.645Z,10.41
2018-08-11T08:52:35.676Z,10.6
2018-08-11T08:53:35.665Z,10.54
2018-08-11T08:54:35.730Z,10.43
2018-08-11T08:55:35.898Z,10.47
2018-08-11T08:56:35.864Z,10.41
2018-08-11T08:57:35.954Z,10.46
2018-08-11T08:58:35.682Z,10.52
2018-08-11T08:59:35.796Z,10.6
2018-08-11T09:00:36.063Z,10.56
2018-08-11T09:01:35.762Z,10.75
2018-08-11T09:02:35.736Z,10.71
2018-08-11T09:03:35.697Z,10.62
2018-08-11T09:04:35.703Z,10.51
2018-08-11T09:05:35.721Z,10.56
2018-08-11T09:06:35.690Z,10.53
2018-08-11T09:07:35.723Z,10.58
2018-08-11T09:08:35.754Z,10.67
2018-08-11T09:09:35.693Z,10.76
2018-08-11T09:10:35.828Z,10.78
2018-08-11T09:11:35.685Z,10.62
2018-08-11T09:12:35.828Z,10.59
2018-08-11T09:13:35.732Z,10.59
2018-08-11T09:14:35.739Z,10.58
2018-08-11T09:15:35.914Z,10.59
2018-08-11T09:16:35.994Z,10.67
2018-08-11T09:17:35.761Z,10.78
2018-08-11T09:18:35.821Z,10.89
2018-08-11T09:19:36.510Z,10.71
2018-08-11T09:20:36.471Z,10.76
2018-08-11T09:21:35.959Z,10.85
2018-08-11T09:22:35.683Z,10.84
2018-08-11T09:23:36.053Z,10.67
2018-08-11T09:24:35.877Z,10.75
2018-08-11T09:25:35.712Z,10.61
2018-08-11T09:26:35.856Z,10.56
2018-08-11T09:27:35.961Z,10.64
2018-08-11T09:28:35.846Z,10.7
2018-08-11T09:29:36.905Z,10.69
2018-08-11T09:30:35.922Z,10.59
2018-08-11T09:31:37.727Z,10.65
2018-08-11T09:32:35.797Z,10.53
2018-08-11T09:33:35.908Z,10.69
2018-08-11T09:34:35.816Z,10.78
2018-08-11T09:35:18.458Z,10.91
2018-08-11T09:36:18.206Z,10.8
2018-08-11T09:37:18.114Z,10.82
2018-08-11T09:38:18.428Z,10.89
2018-08-11T09:39:18.365Z,10.95
2018-08-11T09:40:18.452Z,10.99
2018-08-11T09:41:19.292Z,10.8
2018-08-11T09:42:18.135Z,10.79
2018-08-11T09:43:18.271Z,10.88
2018-08-11T09:44:18.377Z,10.99
2018-08-11T09:45:18.106Z,10.99
2018-08-11T09:46:18.386Z,11.01
2018-08-11T09:47:18.144Z,10.67
2018-08-11T09:48:18.109Z,10.83
2018-08-11T09:49:18.299Z,10.94
2018-08-11T09:50:18.196Z,10.86
2018-08-11T09:51:18.124Z,10.89
2018-08-11T09:52:18.630Z,10.85
2018-08-11T09:53:18.252Z,10.8
2018-08-11T09:54:18.149Z,10.99
2018-08-11T09:55:18.278Z,10.79
2018-08-11T09:56:18.078Z,10.73
2018-08-11T09:57:18.092Z,10.79
2018-08-11T09:58:18.161Z,10.89
2018-08-11T09:59:18.087Z,10.92
2018-08-11T10:00:18.099Z,10.79
2018-08-11T10:01:18.283Z,10.72
2018-08-11T10:02:18.109Z,10.71
2018-08-11T10:03:18.087Z,10.8
2018-08-11T10:04:18.203Z,10.64
2018-08-11T10:05:18.079Z,10.7
2018-08-11T10:06:18.076Z,10.63
2018-08-11T10:07:18.258Z,10.8
2018-08-11T10:08:18.221Z,10.64
2018-08-11T10:09:18.138Z,10.71
2018-08-11T10:10:18.189Z,10.6
2018-08-11T10:11:18.090Z,10.77
2018-08-11T10:12:18.265Z,10.73
2018-08-11T10:13:18.584Z,10.73
2018-08-11T10:14:18.092Z,10.8
2018-08-11T10:15:18.261Z,10.92
2018-08-11T10:16:18.309Z,10.94
2018-08-11T10:17:18.112Z,11.08
2018-08-11T10:18:18.175Z,10.99
2018-08-11T10:19:18.180Z,11.02
2018-08-11T10:20:18.707Z,10.95
2018-08-11T10:21:18.110Z,11.05
2018-08-11T10:22:18.259Z,10.74
2018-08-11T10:23:18.079Z,11.05
2018-08-11T10:24:18.176Z,10.81
2018-08-11T10:25:18.329Z,10.85
2018-08-11T10:26:18.083Z,10.66
2018-08-11T10:27:18.054Z,10.25
2018-08-11T10:28:18.269Z,10.22
2018-08-11T10:29:18.074Z,10.11
2018-08-11T10:30:18.486Z,10.36
2018-08-11T10:31:18.396Z,10.32
2018-08-11T10:32:18.052Z,10.26
2018-08-11T10:33:18.291Z,10.28
2018-08-11T10:34:18.209Z,10.29
2018-08-11T10:35:18.178Z,10.4
2018-08-11T10:36:18.083Z,10.44
2018-08-11T10:37:19.254Z,10.47
2018-08-11T10:38:18.391Z,10.63
2018-08-11T10:39:18.058Z,10.62
2018-08-11T10:40:18.943Z,10.64
2018-08-11T10:41:18.153Z,10.53
2018-08-11T10:42:18.069Z,10.53
2018-08-11T10:43:18.170Z,10.52
2018-08-11T10:44:18.147Z,10.5
2018-08-11T10:45:18.359Z,10.64
2018-08-11T10:46:18.426Z,10.49
2018-08-11T10:47:18.063Z,10.56
2018-08-11T10:48:18.323Z,10.62
2018-08-11T10:49:18.209Z,10.55
2018-08-11T10:50:18.081Z,10.61
2018-08-11T10:51:18.334Z,10.51
2018-08-11T10:52:18.126Z,10.62
2018-08-11T10:53:18.061Z,10.65
2018-08-11T10:54:18.106Z,10.75
2018-08-11T10:55:18.456Z,10.55
2018-08-11T10:56:18.074Z,10.69
2018-08-11T10:57:18.114Z,10.58
2018-08-11T10:58:18.774Z,10.83
2018-08-11T10:59:18.053Z,10.8
2018-08-11T11:00:18.091Z,10.78
2018-08-11T11:01:18.588Z,10.85
2018-08-11T11:02:18.303Z,10.73
2018-08-11T11:03:18.091Z,10.87
2018-08-11T11:04:18.105Z,10.51
2018-08-11T11:05:18.056Z,10.76
2018-08-11T11:06:18.072Z,10.95
2018-08-11T11:07:18.238Z,10.59
2018-08-11T11:08:18.277Z,10.58
2018-08-11T11:09:18.050Z,10.64
2018-08-11T11:10:18.174Z,10.58
2018-08-11T11:11:18.063Z,10.65
2018-08-11T11:12:18.066Z,10.47
2018-08-11T11:13:18.283Z,10.25
2018-08-11T11:14:18.386Z,10.38
2018-08-11T11:15:18.193Z,10.31
2018-08-11T11:16:18.055Z,10.45
2018-08-11T11:17:18.092Z,10.34
2018-08-11T11:18:18.052Z,10.3
2018-08-11T11:19:18.227Z,10.29
2018-08-11T11:20:18.303Z,10.11
2018-08-11T11:21:18.066Z,10.2
2018-08-11T11:22:18.128Z,10.1
2018-08-11T11:23:18.073Z,10.24
2018-08-11T11:24:18.057Z,10.08
2018-08-11T11:25:18.163Z,10.2
2018-08-11T11:26:18.336Z,10.21
2018-08-11T11:27:18.102Z,10.25
2018-08-11T11:28:18.169Z,10.38
2018-08-11T11:29:18.339Z,10.41
2018-08-11T11:30:18.086Z,10.46
2018-08-11T11:31:19.262Z,10.54
2018-08-11T11:32:18.068Z,10.36
2018-08-11T11:33:18.058Z,10.23
2018-08-11T11:34:18.116Z,10.17
2018-08-11T11:35:18.035Z,10.13
2018-08-11T11:36:18.128Z,9.99
2018-08-11T11:37:19.269Z,9.9
2018-08-11T11:38:18.082Z,9.87
2018-08-11T11:39:18.146Z,10.01
2018-08-11T11:40:18.168Z,10.31
2018-08-11T11:41:18.060Z,10.17
2018-08-11T11:42:18.120Z,10.2
2018-08-11T11:43:18.492Z,10.19
2018-08-11T11:44:18.037Z,10.3
2018-08-11T11:45:18.161Z,10.44
2018-08-11T11:46:18.208Z,10.13
2018-08-11T11:47:18.053Z,10.54
2018-08-11T11:48:18.044Z,10.3
2018-08-11T11:49:18.220Z,10.02
2018-08-11T11:50:18.054Z,10
2018-08-11T11:51:18.074Z,9.92
2018-08-11T11:52:18.467Z,9.91
2018-08-11T11:53:18.076Z,10.19
2018-08-11T11:54:18.087Z,10.09
2018-08-11T11:55:18.171Z,9.82
2018-08-11T11:56:18.066Z,9.72
2018-08-11T11:57:18.029Z,9.83
2018-08-11T11:58:18.189Z,9.81
2018-08-11T11:59:18.263Z,9.65
2018-08-11T12:00:18.072Z,9.37
2018-08-11T12:01:18.214Z,9.11
2018-08-11T12:02:18.109Z,9.47
2018-08-11T12:03:18.048Z,9.31
2018-08-11T12:04:18.124Z,9.23
2018-08-11T12:05:18.155Z,8.83
2018-08-11T12:06:18.069Z,9.01
2018-08-11T12:07:18.257Z,9.16
2018-08-11T12:08:18.111Z,9.52
2018-08-11T12:09:18.058Z,9.55
2018-08-11T12:10:18.271Z,9.11
2018-08-11T12:11:18.033Z,8.94
2018-08-11T12:12:18.027Z,8.98
2018-08-11T12:13:18.195Z,9.26
2018-08-11T12:14:18.074Z,9.26
2018-08-11T12:15:18.024Z,9.37
2018-08-11T12:16:18.102Z,9.44
2018-08-11T12:17:18.244Z,9.58
2018-08-11T12:18:18.123Z,9.55
2018-08-11T12:19:18.491Z,9.52
2018-08-11T12:20:18.069Z,9.54
2018-08-11T12:21:18.070Z,9.87
2018-08-11T12:22:18.143Z,9.18
2018-08-11T12:23:18.049Z,9.21
2018-08-11T12:24:18.021Z,9.26
2018-08-11T12:25:18.089Z,9.21
2018-08-11T12:26:18.058Z,9.29
2018-08-11T12:27:18.037Z,9.26
2018-08-11T12:28:18.192Z,8.86
2018-08-11T12:29:18.042Z,8.61
2018-08-11T12:30:18.033Z,8.76
2018-08-11T12:31:19.159Z,8.8
2018-08-11T12:32:18.089Z,8.91
2018-08-11T12:33:18.038Z,9.13
2018-08-11T12:34:18.226Z,9.24
2018-08-11T12:35:18.049Z,9.24
2018-08-11T12:36:18.073Z,9.11
2018-08-11T12:37:18.139Z,8.87
2018-08-11T12:38:18.027Z,8.79
2018-08-11T12:39:18.026Z,8.92
2018-08-11T12:40:18.172Z,8.65
2018-08-11T12:41:18.037Z,8.75
2018-08-11T12:42:18.013Z,8.92
2018-08-11T12:43:18.201Z,9.03
2018-08-11T12:44:18.074Z,9.33
2018-08-11T12:45:18.077Z,9.22
2018-08-11T12:46:18.221Z,9.2
2018-08-11T12:47:18.076Z,9.43
2018-08-11T12:48:18.061Z,9.55
2018-08-11T12:49:18.283Z,9.86
2018-08-11T12:50:18.040Z,9.77
2018-08-11T12:51:18.078Z,9.6
2018-08-11T12:52:18.159Z,9.37
2018-08-11T12:53:18.442Z,9.38
2018-08-11T12:54:18.051Z,9.47
2018-08-11T12:55:18.113Z,9.55
2018-08-11T12:56:18.075Z,9.57
2018-08-11T12:57:18.145Z,9.51
2018-08-11T12:58:18.085Z,9.61
2018-08-11T12:59:18.016Z,9.78
2018-08-11T13:00:18.052Z,9.95